Time;durP1;ratioP1;P1;durP2;ratioP2;P2;SDS_P1;SDS_P2;PMS_P1;PMS_P2;Temp;Humidity;BMP_temperature;BMP_pressure;BME280_temperature;BME280_humidity;BME280_pressure;Samples;Min_cycle;Max_cycle;Signal;HPM_P1;HPM_P2
2023/09/27 00:00:09;;;;;;;;;15.00;15.00;;;;;;;;5020295;28;45582;-77
2023/09/27 00:02:34;;;;;;;;;13.00;12.00;;;;;;;;5020156;28;46413;-77
2023/09/27 00:04:59;;;;;;;;;12.67;12.00;;;;;;;;5020651;28;45331;-76
2023/09/27 00:07:25;;;;;;;;;14.67;13.00;;;;;;;;5018874;28;45450;-77
2023/09/27 00:09:50;;;;;;;;;13.00;13.00;;;;;;;;5018998;28;45483;-76
2023/09/27 00:12:15;;;;;;;;;13.33;13.00;;;;;;;;5028661;28;45708;-76
2023/09/27 00:14:40;;;;;;;;;15.00;15.00;;;;;;;;5041110;28;45938;-77
2023/09/27 00:17:06;;;;;;;;;11.33;11.00;;;;;;;;5041371;28;45313;-77
2023/09/27 00:19:31;;;;;;;;;16.00;16.00;;;;;;;;5041371;28;45388;-76
2023/09/27 00:21:56;;;;;;;;;15.33;14.33;;;;;;;;5039633;28;45906;-77
2023/09/27 00:24:21;;;;;;;;;14.33;11.33;;;;;;;;5041160;28;46300;-77
2023/09/27 00:26:46;;;;;;;;;14.00;14.00;;;;;;;;5041180;28;45323;-77
2023/09/27 00:29:12;;;;;;;;;11.67;11.67;;;;;;;;5041141;28;45284;-77
2023/09/27 00:31:37;;;;;;;;;12.00;12.00;;;;;;;;5040290;28;45200;-76
2023/09/27 00:34:02;;;;;;;;;12.00;12.00;;;;;;;;5040280;28;45312;-77
2023/09/27 00:36:28;;;;;;;;;13.67;13.67;;;;;;;;5027210;28;45347;-76
2023/09/27 00:38:53;;;;;;;;;15.33;15.33;;;;;;;;5040325;28;45329;-77
2023/09/27 00:41:18;;;;;;;;;14.00;14.00;;;;;;;;5040181;28;45381;-76
2023/09/27 00:43:43;;;;;;;;;15.33;15.33;;;;;;;;5040648;28;45355;-77
2023/09/27 00:46:15;;;;;;;;;12.00;12.00;;;;;;;;5022372;28;45315;-77
2023/09/27 00:48:41;;;;;;;;;16.00;14.67;;;;;;;;5040862;28;45439;-76
2023/09/27 00:51:06;;;;;;;;;14.00;14.00;;;;;;;;5040391;28;45595;-76
2023/09/27 00:53:33;;;;;;;;;12.67;12.67;;;;;;;;5040626;28;45346;-77
2023/09/27 00:55:58;;;;;;;;;17.67;15.00;;;;;;;;5039435;28;45643;-77
2023/09/27 00:58:24;;;;;;;;;16.00;16.00;;;;;;;;5040583;28;45321;-77
2023/09/27 01:00:50;;;;;;;;;16.67;15.33;;;;;;;;5040316;28;45563;-77
2023/09/27 01:03:15;;;;;;;;;13.33;13.33;;;;;;;;5040360;28;45348;-77
2023/09/27 01:05:41;;;;;;;;;14.67;14.67;;;;;;;;5038553;28;45304;-77
2023/09/27 01:08:07;;;;;;;;;13.67;12.67;;;;;;;;5040203;28;45606;-77
2023/09/27 01:10:32;;;;;;;;;14.00;14.00;;;;;;;;5039884;28;46056;-77
2023/09/27 01:12:57;;;;;;;;;12.67;12.00;;;;;;;;5040282;28;46061;-76
2023/09/27 01:15:23;;;;;;;;;14.00;14.00;;;;;;;;5040226;28;45380;-76
2023/09/27 01:17:58;;;;;;;;;14.00;13.33;;;;;;;;5040360;28;45293;-76
2023/09/27 01:20:23;;;;;;;;;15.00;14.00;;;;;;;;5038789;28;46379;-76
2023/09/27 01:22:58;;;;;;;;;11.00;11.00;;;;;;;;5039877;28;45449;-77
2023/09/27 01:25:31;;;;;;;;;14.00;13.67;;;;;;;;5039979;28;45288;-77
2023/09/27 01:27:57;;;;;;;;;12.33;10.33;;;;;;;;5022459;28;45294;-77
2023/09/27 01:30:22;;;;;;;;;14.00;12.67;;;;;;;;5038556;28;47116;-76
2023/09/27 01:32:47;;;;;;;;;10.00;10.00;;;;;;;;5039639;28;45351;-76
2023/09/27 01:35:13;;;;;;;;;15.33;14.33;;;;;;;;5040022;28;45328;-76
2023/09/27 01:37:38;;;;;;;;;13.33;13.33;;;;;;;;5039622;28;45328;-76
2023/09/27 01:40:08;;;;;;;;;13.00;12.00;;;;;;;;5040023;28;45305;-76
2023/09/27 01:42:33;;;;;;;;;16.67;14.67;;;;;;;;5038748;28;46273;-77
2023/09/27 01:44:58;;;;;;;;;14.67;13.67;;;;;;;;5039908;28;45309;-76
2023/09/27 01:47:23;;;;;;;;;13.00;13.00;;;;;;;;5038643;28;45490;-77
2023/09/27 01:49:48;;;;;;;;;14.00;13.00;;;;;;;;5038554;28;46161;-77
2023/09/27 01:52:14;;;;;;;;;13.00;13.00;;;;;;;;5021233;28;48242;-76
2023/09/27 01:54:39;;;;;;;;;15.67;15.00;;;;;;;;5039802;28;45273;-77
2023/09/27 01:57:04;;;;;;;;;15.00;14.33;;;;;;;;5039869;28;45495;-77
2023/09/27 01:59:29;;;;;;;;;13.67;12.33;;;;;;;;5039613;28;45444;-76
2023/09/27 02:01:54;;;;;;;;;14.67;13.67;;;;;;;;5039615;28;45392;-77
2023/09/27 02:04:19;;;;;;;;;11.00;10.00;;;;;;;;5038287;28;45868;-76
2023/09/27 02:06:45;;;;;;;;;13.33;12.67;;;;;;;;5039366;28;45308;-77
2023/09/27 02:09:10;;;;;;;;;15.33;12.67;;;;;;;;5039574;28;45250;-77
2023/09/27 02:11:35;;;;;;;;;13.33;12.67;;;;;;;;5038205;28;47179;-77
2023/09/27 02:14:03;;;;;;;;;12.00;12.00;;;;;;;;5037902;28;45862;-77
2023/09/27 02:16:29;;;;;;;;;14.33;13.00;;;;;;;;5039724;28;45312;-77
2023/09/27 02:18:54;;;;;;;;;13.00;12.33;;;;;;;;5039361;28;45457;-77
2023/09/27 02:21:19;;;;;;;;;12.00;12.00;;;;;;;;5037763;28;47375;-77
2023/09/27 02:23:45;;;;;;;;;16.00;16.00;;;;;;;;5039555;28;45293;-78
2023/09/27 02:26:12;;;;;;;;;14.33;14.33;;;;;;;;5039524;28;45370;-77
2023/09/27 02:28:37;;;;;;;;;15.00;14.33;;;;;;;;5021048;28;46443;-77
2023/09/27 02:31:08;;;;;;;;;15.00;13.00;;;;;;;;5021354;28;47160;-77
2023/09/27 02:33:33;;;;;;;;;14.00;13.67;;;;;;;;5038975;28;45324;-77
2023/09/27 02:35:58;;;;;;;;;13.00;11.00;;;;;;;;5039073;28;45297;-77
2023/09/27 02:38:23;;;;;;;;;14.67;12.00;;;;;;;;5039219;28;45434;-78
2023/09/27 02:40:48;;;;;;;;;13.00;13.00;;;;;;;;5039205;28;45401;-77
2023/09/27 02:43:14;;;;;;;;;13.00;12.67;;;;;;;;5021051;28;45764;-77
2023/09/27 02:45:39;;;;;;;;;11.00;11.00;;;;;;;;5038927;28;45371;-76
2023/09/27 02:48:04;;;;;;;;;13.00;12.33;;;;;;;;5038910;28;45337;-77
2023/09/27 02:50:29;;;;;;;;;11.00;10.00;;;;;;;;5038893;28;46130;-76
2023/09/27 02:52:55;;;;;;;;;14.33;14.33;;;;;;;;5038752;28;45237;-77
2023/09/27 02:55:20;;;;;;;;;12.33;11.67;;;;;;;;5041945;28;45277;-77
2023/09/27 02:57:50;;;;;;;;;10.00;10.00;;;;;;;;5024225;28;46336;-76
2023/09/27 03:00:15;;;;;;;;;13.67;13.00;;;;;;;;5042193;28;46468;-76
2023/09/27 03:02:41;;;;;;;;;12.67;12.67;;;;;;;;5042332;28;45177;-77
2023/09/27 03:05:07;;;;;;;;;13.33;13.33;;;;;;;;5040957;28;45336;-77
2023/09/27 03:07:34;;;;;;;;;11.00;10.33;;;;;;;;5040550;28;45974;-77
2023/09/27 03:09:59;;;;;;;;;12.00;11.00;;;;;;;;5042117;28;45387;-77
2023/09/27 03:12:24;;;;;;;;;13.67;12.67;;;;;;;;5042040;28;45318;-77
2023/09/27 03:14:49;;;;;;;;;14.67;13.33;;;;;;;;5042492;28;45308;-77
2023/09/27 03:17:15;;;;;;;;;11.33;11.33;;;;;;;;5040903;28;47549;-77
2023/09/27 03:19:40;;;;;;;;;13.00;12.00;;;;;;;;5042238;28;45631;-77
2023/09/27 03:22:05;;;;;;;;;14.00;14.00;;;;;;;;5041590;28;45423;-76
2023/09/27 03:24:34;;;;;;;;;11.67;11.67;;;;;;;;5042470;28;45281;-77
2023/09/27 03:27:00;;;;;;;;;12.00;12.00;;;;;;;;5042080;28;45463;-77
2023/09/27 03:29:25;;;;;;;;;13.00;12.00;;;;;;;;5040485;28;46018;-77
2023/09/27 03:31:50;;;;;;;;;12.00;11.50;;;;;;;;5041638;28;45258;-77
2023/09/27 03:34:16;;;;;;;;;10.33;10.33;;;;;;;;5040739;28;45202;-77
2023/09/27 03:36:43;;;;;;;;;12.00;12.00;;;;;;;;5023658;28;46947;-77
2023/09/27 03:39:09;;;;;;;;;12.00;12.00;;;;;;;;5041887;28;45996;-76
2023/09/27 03:41:34;;;;;;;;;14.67;13.67;;;;;;;;5041860;28;45313;-77
2023/09/27 03:43:59;;;;;;;;;14.33;12.00;;;;;;;;5042013;28;45298;-77
2023/09/27 03:46:24;;;;;;;;;15.00;11.67;;;;;;;;5040472;28;46048;-77
2023/09/27 03:48:50;;;;;;;;;12.67;12.00;;;;;;;;5041744;28;46058;-77
2023/09/27 03:51:22;;;;;;;;;13.00;11.33;;;;;;;;5041444;28;45423;-77
2023/09/27 03:53:48;;;;;;;;;12.67;12.67;;;;;;;;5023645;28;45412;-77
2023/09/27 03:56:13;;;;;;;;;11.33;11.33;;;;;;;;5041521;28;45454;-77
2023/09/27 03:58:38;;;;;;;;;12.00;11.67;;;;;;;;5041426;28;45506;-77
2023/09/27 04:01:03;;;;;;;;;15.00;15.00;;;;;;;;5041313;28;45245;-76
2023/09/27 04:03:29;;;;;;;;;11.00;11.00;;;;;;;;5041731;28;45380;-77
2023/09/27 04:05:56;;;;;;;;;10.00;10.00;;;;;;;;5040037;28;45283;-77
2023/09/27 04:08:21;;;;;;;;;13.00;13.00;;;;;;;;5041284;28;45265;-77
2023/09/27 04:10:46;;;;;;;;;11.67;10.67;;;;;;;;5039980;28;45911;-77
2023/09/27 04:13:12;;;;;;;;;12.00;12.00;;;;;;;;5041444;28;45204;-77
2023/09/27 04:15:37;;;;;;;;;14.67;12.67;;;;;;;;5041424;28;45383;-77
2023/09/27 04:18:03;;;;;;;;;16.00;15.00;;;;;;;;5023350;28;48047;-77
2023/09/27 04:20:28;;;;;;;;;12.00;10.00;;;;;;;;5040866;28;45321;-77
2023/09/27 04:22:53;;;;;;;;;12.67;12.33;;;;;;;;5040106;28;45286;-77
2023/09/27 04:25:19;;;;;;;;;12.33;12.00;;;;;;;;5041076;28;45455;-77
2023/09/27 04:27:46;;;;;;;;;12.33;12.00;;;;;;;;5006855;28;47475;-79
2023/09/27 04:30:12;;;;;;;;;15.00;15.00;;;;;;;;5040859;28;45280;-77
2023/09/27 04:32:41;;;;;;;;;20.00;17.33;;;;;;;;5040567;28;45320;-77
2023/09/27 04:35:08;;;;;;;;;19.33;16.67;;;;;;;;5039513;28;46740;-77
2023/09/27 04:37:33;;;;;;;;;16.00;15.00;;;;;;;;5040016;28;45289;-77
2023/09/27 04:39:58;;;;;;;;;17.33;14.67;;;;;;;;5021536;28;45337;-77
2023/09/27 04:42:24;;;;;;;;;13.00;13.00;;;;;;;;5041037;28;45319;-77
2023/09/27 04:44:49;;;;;;;;;15.33;13.67;;;;;;;;5040856;28;45300;-78
2023/09/27 04:47:14;;;;;;;;;12.00;12.00;;;;;;;;5040788;28;46221;-77
2023/09/27 04:49:39;;;;;;;;;13.00;11.00;;;;;;;;5040534;28;45257;-77
2023/09/27 04:52:04;;;;;;;;;10.67;10.67;;;;;;;;5039226;28;45513;-77
2023/09/27 04:54:29;;;;;;;;;10.00;9.67;;;;;;;;5022864;28;46376;-77
2023/09/27 04:56:55;;;;;;;;;12.00;11.33;;;;;;;;5040248;28;45256;-77
2023/09/27 04:59:20;;;;;;;;;11.33;10.33;;;;;;;;5040305;28;45246;-78
2023/09/27 05:01:45;;;;;;;;;13.33;12.67;;;;;;;;5021556;28;45148;-77
2023/09/27 05:04:10;;;;;;;;;9.33;9.33;;;;;;;;5039847;28;45384;-76
2023/09/27 05:06:35;;;;;;;;;14.00;12.33;;;;;;;;5021912;28;47157;-77
2023/09/27 05:09:00;;;;;;;;;12.00;12.00;;;;;;;;5039822;28;45351;-76
2023/09/27 05:11:26;;;;;;;;;13.00;13.00;;;;;;;;5039163;28;45197;-77
2023/09/27 05:13:51;;;;;;;;;10.67;10.67;;;;;;;;5022399;28;46026;-77
2023/09/27 05:16:17;;;;;;;;;11.00;10.33;;;;;;;;5040307;28;46121;-77
2023/09/27 05:18:42;;;;;;;;;9.67;9.67;;;;;;;;5040143;28;45289;-77
2023/09/27 05:21:07;;;;;;;;;11.00;9.00;;;;;;;;5037585;28;45273;-77
2023/09/27 05:23:32;;;;;;;;;7.00;7.00;;;;;;;;5040335;28;45386;-77
2023/09/27 05:25:58;;;;;;;;;9.67;9.67;;;;;;;;5039578;28;45304;-77
2023/09/27 05:28:23;;;;;;;;;10.67;10.67;;;;;;;;5022027;28;45265;-77
2023/09/27 05:30:48;;;;;;;;;9.67;9.67;;;;;;;;5022164;28;45314;-77
2023/09/27 05:33:13;;;;;;;;;14.00;10.67;;;;;;;;5039783;28;45299;-78
2023/09/27 05:35:38;;;;;;;;;10.33;10.33;;;;;;;;5039675;28;46210;-78
2023/09/27 05:38:04;;;;;;;;;11.33;11.00;;;;;;;;5040148;28;45274;-79
2023/09/27 05:40:29;;;;;;;;;8.33;8.33;;;;;;;;5040287;28;45486;-79
2023/09/27 05:42:54;;;;;;;;;11.33;10.67;;;;;;;;5039958;28;45696;-80
2023/09/27 05:45:19;;;;;;;;;12.00;9.67;;;;;;;;5039767;28;45649;-80
2023/09/27 05:47:44;;;;;;;;;10.00;10.00;;;;;;;;5040035;28;45517;-79
2023/09/27 05:50:13;;;;;;;;;11.33;10.67;;;;;;;;5040101;28;45389;-78
2023/09/27 05:52:39;;;;;;;;;12.67;12.33;;;;;;;;5039432;28;45227;-78
2023/09/27 05:55:05;;;;;;;;;12.00;12.00;;;;;;;;5039731;28;45250;-77
2023/09/27 05:57:31;;;;;;;;;13.33;11.67;;;;;;;;5039708;28;45250;-78
2023/09/27 05:59:58;;;;;;;;;13.33;11.67;;;;;;;;5039733;28;45261;-78
2023/09/27 06:02:30;;;;;;;;;11.00;11.00;;;;;;;;5039598;28;45344;-78
2023/09/27 06:04:55;;;;;;;;;11.00;10.00;;;;;;;;5039611;28;45253;-79
2023/09/27 06:07:22;;;;;;;;;16.00;14.00;;;;;;;;5039267;28;45257;-80
2023/09/27 06:09:48;;;;;;;;;10.33;10.33;;;;;;;;5039818;28;45305;-79
2023/09/27 06:12:13;;;;;;;;;17.67;13.67;;;;;;;;5033895;28;46168;-78
2023/09/27 06:14:38;;;;;;;;;14.33;14.33;;;;;;;;5038599;28;45527;-77
2023/09/27 06:17:04;;;;;;;;;16.67;15.00;;;;;;;;5039518;28;45580;-78
2023/09/27 06:19:31;;;;;;;;;9.33;9.33;;;;;;;;5040170;28;45316;-81
2023/09/27 06:21:57;;;;;;;;;18.67;17.00;;;;;;;;5039281;28;45471;-81
2023/09/27 06:24:23;;;;;;;;;15.00;13.00;;;;;;;;5039845;28;45672;-81
2023/09/27 06:26:48;;;;;;;;;19.33;17.00;;;;;;;;5024420;28;45443;-80
2023/09/27 06:29:13;;;;;;;;;13.33;12.33;;;;;;;;5037545;28;45456;-80
2023/09/27 06:31:38;;;;;;;;;11.00;10.67;;;;;;;;5026383;28;45268;-80
2023/09/27 06:34:04;;;;;;;;;12.67;11.33;;;;;;;;5026351;28;45242;-80
2023/09/27 06:36:34;;;;;;;;;17.33;17.00;;;;;;;;5026098;28;45298;-81
2023/09/27 06:38:59;;;;;;;;;16.33;16.00;;;;;;;;5006702;28;45438;-81
2023/09/27 06:41:24;;;;;;;;;17.67;16.00;;;;;;;;5022138;28;45878;-79
2023/09/27 06:43:49;;;;;;;;;18.00;15.00;;;;;;;;5030479;28;46149;-83
2023/09/27 06:46:17;;;;;;;;;15.33;14.33;;;;;;;;5041963;28;45553;-82
2023/09/27 06:48:43;;;;;;;;;16.33;15.33;;;;;;;;5023668;28;45330;-81
2023/09/27 06:51:08;;;;;;;;;15.67;15.00;;;;;;;;5022086;28;46752;-81
2023/09/27 06:53:33;;;;;;;;;14.67;13.67;;;;;;;;5041332;28;46118;-81
2023/09/27 06:55:59;;;;;;;;;17.00;15.67;;;;;;;;5042780;28;45305;-81
2023/09/27 06:58:25;;;;;;;;;18.67;17.00;;;;;;;;5025483;28;45140;-80
2023/09/27 07:00:51;;;;;;;;;18.67;18.33;;;;;;;;5042432;28;45237;-81
2023/09/27 07:03:17;;;;;;;;;17.67;17.67;;;;;;;;5042686;28;47157;-80
2023/09/27 07:05:42;;;;;;;;;13.00;10.67;;;;;;;;5043999;28;45330;-80
2023/09/27 07:08:07;;;;;;;;;13.00;13.00;;;;;;;;5026834;28;45466;-81
2023/09/27 07:10:32;;;;;;;;;15.00;15.00;;;;;;;;5044559;28;45453;-81
2023/09/27 07:12:57;;;;;;;;;14.33;13.67;;;;;;;;5042879;28;46300;-81
2023/09/27 07:15:23;;;;;;;;;16.00;16.00;;;;;;;;5043208;28;45357;-80
2023/09/27 07:17:48;;;;;;;;;13.67;12.67;;;;;;;;5024896;28;45316;-80
2023/09/27 07:20:32;;;;;;;;;16.00;14.00;;;;;;;;5041013;28;45871;-80
2023/09/27 07:22:58;;;;;;;;;14.00;14.00;;;;;;;;5025735;28;47686;-80
2023/09/27 07:25:23;;;;;;;;;14.67;14.67;;;;;;;;5046236;28;45434;-80
2023/09/27 07:27:49;;;;;;;;;10.67;10.67;;;;;;;;5047241;28;45330;-80
2023/09/27 07:30:18;;;;;;;;;12.67;11.67;;;;;;;;5024490;28;45797;-80
2023/09/27 07:32:45;;;;;;;;;13.00;13.00;;;;;;;;5029842;28;47860;-80
2023/09/27 07:35:12;;;;;;;;;14.00;13.00;;;;;;;;5023151;28;45271;-80
2023/09/27 07:37:37;;;;;;;;;14.67;13.67;;;;;;;;5040230;28;45941;-80
2023/09/27 07:40:11;;;;;;;;;14.00;13.67;;;;;;;;5042968;28;45291;-80
2023/09/27 07:42:41;;;;;;;;;12.00;12.00;;;;;;;;5025634;28;47405;-80
2023/09/27 07:45:07;;;;;;;;;13.00;11.00;;;;;;;;5043088;28;45404;-80
2023/09/27 07:47:33;;;;;;;;;14.33;13.67;;;;;;;;5040471;28;45590;-80
2023/09/27 07:49:59;;;;;;;;;12.33;10.67;;;;;;;;5016206;28;46013;-80
2023/09/27 07:52:25;;;;;;;;;14.33;14.33;;;;;;;;5046746;28;45329;-80
2023/09/27 07:54:51;;;;;;;;;16.33;14.67;;;;;;;;5044400;28;45245;-79
2023/09/27 07:57:16;;;;;;;;;15.33;13.00;;;;;;;;5024175;28;45280;-79
2023/09/27 07:59:42;;;;;;;;;16.33;16.33;;;;;;;;5024288;28;45809;-79
2023/09/27 08:02:09;;;;;;;;;12.00;12.00;;;;;;;;5042296;28;46639;-79
2023/09/27 08:04:34;;;;;;;;;14.00;12.67;;;;;;;;5025794;28;45329;-80
2023/09/27 08:06:59;;;;;;;;;13.67;13.67;;;;;;;;5044846;28;45285;-80
2023/09/27 08:09:25;;;;;;;;;43.67;35.67;;;;;;;;5024858;28;46915;-79
2023/09/27 08:11:51;;;;;;;;;46.33;38.00;;;;;;;;5044170;28;48295;-79
2023/09/27 08:14:18;;;;;;;;;45.00;38.33;;;;;;;;5047663;28;45349;-79
2023/09/27 08:16:43;;;;;;;;;36.67;31.67;;;;;;;;5043657;28;45239;-80
2023/09/27 08:19:09;;;;;;;;;33.00;29.33;;;;;;;;5028115;28;46057;-79
2023/09/27 08:21:34;;;;;;;;;31.00;28.33;;;;;;;;5010615;28;48476;-79
2023/09/27 08:23:59;;;;;;;;;34.67;30.67;;;;;;;;5023701;28;45437;-78
2023/09/27 08:26:26;;;;;;;;;24.33;22.33;;;;;;;;5025223;28;45346;-78
2023/09/27 08:28:51;;;;;;;;;17.33;15.67;;;;;;;;5028912;28;45220;-79
2023/09/27 08:31:17;;;;;;;;;14.33;14.00;;;;;;;;5040396;28;46027;-78
2023/09/27 08:33:42;;;;;;;;;11.33;9.67;;;;;;;;5028988;28;45535;-79
2023/09/27 08:36:08;;;;;;;;;11.67;11.00;;;;;;;;5020807;28;45570;-78
2023/09/27 08:38:33;;;;;;;;;12.33;12.33;;;;;;;;5019163;28;45584;-79
2023/09/27 08:40:59;;;;;;;;;11.33;10.67;;;;;;;;5019021;28;45322;-78
2023/09/27 08:43:26;;;;;;;;;12.33;12.33;;;;;;;;5001858;28;45928;-76
2023/09/27 08:45:52;;;;;;;;;7.67;7.67;;;;;;;;5017180;28;45317;-78
2023/09/27 08:48:20;;;;;;;;;11.67;11.67;;;;;;;;5019762;28;45491;-77
2023/09/27 08:50:46;;;;;;;;;11.33;10.00;;;;;;;;5015913;28;46327;-80
2023/09/27 08:53:11;;;;;;;;;10.67;10.33;;;;;;;;4999135;28;46650;-81
2023/09/27 08:55:37;;;;;;;;;12.33;11.00;;;;;;;;4995317;28;45460;-79
2023/09/27 08:58:02;;;;;;;;;11.00;10.67;;;;;;;;4995672;28;46106;-79
2023/09/27 09:00:28;;;;;;;;;12.67;11.00;;;;;;;;5017906;28;45728;-79
2023/09/27 09:02:58;;;;;;;;;16.33;16.33;;;;;;;;5009761;28;45297;-79
2023/09/27 09:05:23;;;;;;;;;15.33;14.33;;;;;;;;4999247;28;45355;-78
2023/09/27 09:07:50;;;;;;;;;16.67;15.33;;;;;;;;5018923;28;45466;-78
2023/09/27 09:10:16;;;;;;;;;18.00;16.67;;;;;;;;5018835;28;45314;-78
2023/09/27 09:12:42;;;;;;;;;18.00;16.67;;;;;;;;5017711;28;45282;-79
2023/09/27 09:15:14;;;;;;;;;21.67;20.33;;;;;;;;5017989;28;45448;-80
2023/09/27 09:17:42;;;;;;;;;12.33;11.67;;;;;;;;5018369;28;45319;-79
2023/09/27 09:20:15;;;;;;;;;11.33;10.67;;;;;;;;5017622;28;46091;-79
2023/09/27 09:22:44;;;;;;;;;10.67;10.00;;;;;;;;5020603;28;45559;-78
2023/09/27 09:25:09;;;;;;;;;13.33;11.00;;;;;;;;5018549;28;45398;-79
2023/09/27 09:27:34;;;;;;;;;10.33;9.33;;;;;;;;5018704;28;45767;-79
2023/09/27 09:30:02;;;;;;;;;9.67;9.00;;;;;;;;4994677;28;47028;-79
2023/09/27 09:32:29;;;;;;;;;9.67;8.33;;;;;;;;5019636;28;45487;-77
2023/09/27 09:34:54;;;;;;;;;8.00;8.00;;;;;;;;5018574;28;45336;-78
2023/09/27 09:37:21;;;;;;;;;5.33;5.33;;;;;;;;5017662;28;45519;-80
2023/09/27 09:39:47;;;;;;;;;9.67;8.00;;;;;;;;5001421;28;47515;-78
2023/09/27 09:42:13;;;;;;;;;9.00;8.67;;;;;;;;5018965;28;45550;-78
2023/09/27 09:44:39;;;;;;;;;10.00;10.00;;;;;;;;5019335;28;45391;-81
2023/09/27 09:47:10;;;;;;;;;7.00;7.00;;;;;;;;5019260;28;45519;-81
2023/09/27 09:49:35;;;;;;;;;8.00;8.00;;;;;;;;5019054;28;45458;-82
2023/09/27 09:52:02;;;;;;;;;10.67;8.33;;;;;;;;5001320;28;45311;-80
2023/09/27 09:54:29;;;;;;;;;9.00;7.33;;;;;;;;5019959;28;45269;-81
2023/09/27 09:56:55;;;;;;;;;9.00;9.00;;;;;;;;5015377;28;45455;-81
2023/09/27 09:59:22;;;;;;;;;9.00;8.67;;;;;;;;5018062;28;46456;-80
2023/09/27 10:01:49;;;;;;;;;9.00;9.00;;;;;;;;5018099;28;45337;-81
2023/09/27 10:04:16;;;;;;;;;9.33;8.33;;;;;;;;5017269;28;45262;-81
2023/09/27 10:06:42;;;;;;;;;9.00;9.00;;;;;;;;4999933;28;46082;-82
2023/09/27 10:09:13;;;;;;;;;10.00;9.00;;;;;;;;5017630;28;46143;-81
2023/09/27 10:11:39;;;;;;;;;9.33;8.67;;;;;;;;5016155;28;45830;-79
2023/09/27 10:14:05;;;;;;;;;8.00;7.33;;;;;;;;5021438;28;45238;-80
2023/09/27 10:16:31;;;;;;;;;9.00;9.00;;;;;;;;5020146;28;45560;-83
2023/09/27 10:18:56;;;;;;;;;8.00;8.00;;;;;;;;5002312;28;47080;-82
2023/09/27 10:21:21;;;;;;;;;8.33;8.33;;;;;;;;5020241;28;45230;-82
2023/09/27 10:23:46;;;;;;;;;8.00;8.00;;;;;;;;5002969;28;45310;-80
2023/09/27 10:26:27;;;;;;;;;8.67;8.33;;;;;;;;5019758;28;45234;-80
2023/09/27 10:29:06;;;;;;;;;8.67;8.67;;;;;;;;5001845;28;48496;-81
2023/09/27 10:31:31;;;;;;;;;9.33;9.00;;;;;;;;5019769;28;45235;-80
2023/09/27 10:33:56;;;;;;;;;9.00;9.00;;;;;;;;5019055;28;45211;-78
2023/09/27 10:36:22;;;;;;;;;10.00;10.00;;;;;;;;5019209;28;45157;-81
2023/09/27 10:38:50;;;;;;;;;7.25;6.75;;;;;;;;5020568;28;47568;-81
2023/09/27 10:41:34;;;;;;;;;9.33;9.33;;;;;;;;5019310;28;45674;-81
2023/09/27 10:43:59;;;;;;;;;10.67;9.67;;;;;;;;5026193;28;45447;-80
2023/09/27 10:46:25;;;;;;;;;8.25;8.25;;;;;;;;5021470;28;47186;-81
2023/09/27 10:48:53;;;;;;;;;8.67;7.67;;;;;;;;5037570;28;45297;-81
2023/09/27 10:51:20;;;;;;;;;7.67;7.67;;;;;;;;5037658;28;45307;-80
2023/09/27 10:53:45;;;;;;;;;9.33;9.00;;;;;;;;5039460;28;45325;-81
2023/09/27 10:56:11;;;;;;;;;9.00;9.00;;;;;;;;5020979;28;46403;-82
2023/09/27 10:58:43;;;;;;;;;11.00;11.00;;;;;;;;5037174;28;45313;-80
2023/09/27 11:01:11;;;;;;;;;8.25;7.00;;;;;;;;5035888;28;45289;-80
2023/09/27 11:03:37;;;;;;;;;10.00;8.67;;;;;;;;5019493;28;46566;-77
2023/09/27 11:06:23;;;;;;;;;9.50;9.50;;;;;;;;5037540;28;45482;-79
2023/09/27 11:08:48;;;;;;;;;8.67;7.00;;;;;;;;5035648;28;45526;-79
2023/09/27 11:11:16;;;;;;;;;7.50;7.50;;;;;;;;5037554;28;45568;-79
2023/09/27 11:13:42;;;;;;;;;8.75;7.75;;;;;;;;5021031;28;45487;-79
2023/09/27 11:16:08;;;;;;;;;7.00;7.00;;;;;;;;5040568;28;45364;-78
2023/09/27 11:18:34;;;;;;;;;8.50;7.50;;;;;;;;5034757;28;46357;-79
2023/09/27 11:21:31;;;;;;;;;17.00;17.00;;;;;;;;5043399;28;45305;-80
2023/09/27 11:23:57;;;;;;;;;14.00;14.00;;;;;;;;5039386;28;45508;-79
2023/09/27 11:26:35;;;;;;;;;15.00;13.33;;;;;;;;5040111;28;45651;-81
2023/09/27 11:29:25;;;;;;;;;12.33;10.33;;;;;;;;5038917;28;47264;-78
2023/09/27 11:32:01;;;;;;;;;8.50;7.50;;;;;;;;5039848;28;45264;-80
2023/09/27 11:44:38;;;;;;;;;6.75;6.75;;;;;;;;4956982;28;46105;-80
2023/09/27 11:47:31;;;;;;;;;;;;;;;;;;;;;
2023/09/27 11:50:20;;;;;;;;;9.00;9.00;;;;;;;;5026266;28;73258;-80
2023/09/27 11:52:48;;;;;;;;;7.00;7.00;;;;;;;;5022145;28;47190;-78
2023/09/27 11:55:21;;;;;;;;;6.50;6.50;;;;;;;;5026470;28;45504;-82
2023/09/27 11:57:49;;;;;;;;;7.50;7.50;;;;;;;;5016852;28;45444;-80
2023/09/27 12:00:36;;;;;;;;;6.00;6.00;;;;;;;;5012787;28;45534;-77
2023/09/27 12:03:01;;;;;;;;;6.75;6.00;;;;;;;;5019398;28;45513;-80
2023/09/27 12:05:48;;;;;;;;;9.00;8.00;;;;;;;;5010176;28;45456;-78
2023/09/27 12:08:19;;;;;;;;;6.75;6.00;;;;;;;;5002157;28;45446;-80
2023/09/27 12:10:45;;;;;;;;;6.25;5.00;;;;;;;;5010705;28;45405;-81
2023/09/27 12:13:10;;;;;;;;;5.00;5.00;;;;;;;;5027962;28;46490;-79
2023/09/27 12:15:35;;;;;;;;;6.75;6.50;;;;;;;;5012083;28;44820;-79
2023/09/27 12:18:00;;;;;;;;;5.00;4.75;;;;;;;;5031074;28;45518;-80
2023/09/27 12:20:27;;;;;;;;;4.25;4.00;;;;;;;;5028857;28;45502;-81
2023/09/27 12:22:53;;;;;;;;;4.75;4.75;;;;;;;;5007036;28;48108;-80
2023/09/27 12:25:18;;;;;;;;;5.25;5.25;;;;;;;;5028726;28;45787;-80
2023/09/27 12:27:43;;;;;;;;;4.50;4.25;;;;;;;;5028951;28;45335;-78
2023/09/27 12:30:09;;;;;;;;;5.50;5.50;;;;;;;;5010399;28;45977;-81
2023/09/27 12:32:34;;;;;;;;;5.50;5.25;;;;;;;;5025055;28;45384;-80
2023/09/27 12:34:59;;;;;;;;;5.75;5.75;;;;;;;;5004075;28;45329;-81
2023/09/27 12:37:25;;;;;;;;;3.75;3.75;;;;;;;;5011971;28;45550;-81
2023/09/27 12:39:50;;;;;;;;;3.50;3.50;;;;;;;;5016562;28;45491;-81
2023/09/27 12:42:15;;;;;;;;;5.00;5.00;;;;;;;;5017651;28;45522;-80
2023/09/27 12:44:40;;;;;;;;;6.00;6.00;;;;;;;;4996936;28;45479;-79
2023/09/27 12:47:06;;;;;;;;;6.00;6.00;;;;;;;;5018577;28;45560;-78
2023/09/27 12:49:31;;;;;;;;;5.50;5.50;;;;;;;;5019809;28;45642;-79
2023/09/27 12:51:56;;;;;;;;;8.75;6.00;;;;;;;;5013928;28;46363;-79
2023/09/27 12:54:22;;;;;;;;;5.50;5.50;;;;;;;;5019558;28;45294;-78
2023/09/27 12:56:47;;;;;;;;;7.00;7.00;;;;;;;;5018810;28;45393;-78
2023/09/27 12:59:13;;;;;;;;;4.75;4.75;;;;;;;;5018211;28;45332;-79
2023/09/27 13:01:38;;;;;;;;;3.75;3.75;;;;;;;;5018465;28;46320;-78
2023/09/27 13:04:03;;;;;;;;;4.75;4.75;;;;;;;;5019247;28;45523;-77
2023/09/27 13:06:28;;;;;;;;;5.50;5.50;;;;;;;;5019187;28;45409;-78
2023/09/27 13:08:54;;;;;;;;;7.75;7.25;;;;;;;;5019181;28;45546;-77
2023/09/27 13:11:19;;;;;;;;;5.00;4.75;;;;;;;;5018062;28;46084;-78
2023/09/27 13:13:45;;;;;;;;;4.75;4.75;;;;;;;;4996713;28;45519;-78
2023/09/27 13:16:11;;;;;;;;;5.50;5.50;;;;;;;;5017453;28;45562;-78
2023/09/27 13:18:36;;;;;;;;;6.00;6.00;;;;;;;;4999885;28;46337;-78
2023/09/27 13:21:01;;;;;;;;;4.75;4.75;;;;;;;;5005821;28;47201;-78
2023/09/27 13:23:27;;;;;;;;;7.00;5.75;;;;;;;;5007831;28;45325;-79
2023/09/27 13:25:53;;;;;;;;;4.50;4.50;;;;;;;;5001452;28;45218;-79
2023/09/27 13:28:18;;;;;;;;;6.50;6.00;;;;;;;;5001007;28;46384;-81
2023/09/27 13:30:43;;;;;;;;;5.50;5.50;;;;;;;;5020282;28;45488;-80
2023/09/27 13:33:09;;;;;;;;;5.25;5.25;;;;;;;;5002261;28;45303;-80
2023/09/27 13:35:34;;;;;;;;;7.75;6.00;;;;;;;;5019936;28;45413;-79
2023/09/27 13:38:02;;;;;;;;;5.00;5.00;;;;;;;;5041362;28;45533;-79
2023/09/27 13:40:28;;;;;;;;;4.25;4.25;;;;;;;;5040550;28;45351;-81
2023/09/27 13:42:53;;;;;;;;;6.50;6.50;;;;;;;;5020354;28;45984;-79
2023/09/27 13:45:18;;;;;;;;;5.75;4.75;;;;;;;;5038890;28;45938;-80
2023/09/27 13:47:43;;;;;;;;;6.00;6.00;;;;;;;;5020750;28;47405;-81
2023/09/27 13:50:09;;;;;;;;;2.50;2.25;;;;;;;;5038779;28;45652;-80
2023/09/27 13:52:34;;;;;;;;;4.00;4.00;;;;;;;;5038053;28;45376;-80
2023/09/27 13:54:59;;;;;;;;;4.00;4.00;;;;;;;;5038997;28;45607;-77
2023/09/27 13:57:25;;;;;;;;;5.00;5.00;;;;;;;;5038386;28;45348;-79
2023/09/27 13:59:50;;;;;;;;;4.75;4.75;;;;;;;;5034451;28;46116;-79
2023/09/27 14:02:16;;;;;;;;;6.00;6.00;;;;;;;;5037366;28;45545;-79
2023/09/27 14:04:42;;;;;;;;;5.00;4.75;;;;;;;;5011415;28;45419;-79
2023/09/27 14:07:07;;;;;;;;;4.75;4.75;;;;;;;;5030618;28;45763;-77
2023/09/27 14:09:32;;;;;;;;;4.00;4.00;;;;;;;;5034036;28;45732;-79
2023/09/27 14:11:58;;;;;;;;;5.50;5.50;;;;;;;;5034768;28;45427;-79
2023/09/27 14:14:24;;;;;;;;;2.50;2.50;;;;;;;;5014364;28;45439;-79
2023/09/27 14:16:49;;;;;;;;;4.25;4.25;;;;;;;;5037434;28;45273;-77
2023/09/27 14:19:16;;;;;;;;;4.00;4.00;;;;;;;;5034682;28;45345;-78
2023/09/27 14:21:41;;;;;;;;;3.75;3.75;;;;;;;;5037039;28;45360;-77
2023/09/27 14:24:08;;;;;;;;;4.75;4.25;;;;;;;;5018689;28;45385;-79
2023/09/27 14:26:33;;;;;;;;;4.25;4.25;;;;;;;;5035353;28;45963;-75
2023/09/27 14:28:58;;;;;;;;;4.25;4.25;;;;;;;;5036553;28;46354;-78
2023/09/27 14:31:27;;;;;;;;;3.00;3.00;;;;;;;;5036187;28;45381;-78